This is the latest recevied weather packets stored in our database for station/object AI5YA-13. If no packets are shown the sender has not sent any weather packets the latest 10 day(s).
| Time | Temp. | Humidity | Pressure | Rain* | Wind** | Luminosity | Snow |
|---|---|---|---|---|---|---|---|
| 1777920480 | 27.78° C | 33% | 1011.4 hPa | 0 mm | - | 318 W/m² | - |
| 1777920176 | 27.78° C | 32% | 1011.2 hPa | 0 mm | - | 318 W/m² | - |
| 1777919872 | 28.33° C | 33% | 1011.3 hPa | 0 mm | - | 354 W/m² | - |
| 1777919569 | 28.33° C | 32% | 1011.4 hPa | 0 mm | - | 368 W/m² | - |
| 1777919267 | 28.33° C | 32% | 1011.4 hPa | 0 mm | - | 390 W/m² | - |
| 1777918964 | 28.33° C | 31% | 1011.7 hPa | 0 mm | - | 390 W/m² | - |
| 1777918662 | 28.33° C | 31% | 1011.7 hPa | 0 mm | - | 413 W/m² | - |
| 1777918359 | 28.89° C | 31% | 1011.7 hPa | 0 mm | - | 386 W/m² | - |
| 1777918058 | 28.89° C | 32% | 1011.7 hPa | 0 mm | - | 431 W/m² | - |
| 1777917756 | 28.89° C | 30% | 1011.5 hPa | 0 mm | - | 462 W/m² | - |
| 1777917453 | 28.89° C | 30% | 1011.5 hPa | 0 mm | - | 462 W/m² | - |
| 1777912905 | 27.78° C | 37% | 1012.3 hPa | 0 mm | - | 834 W/m² | - |
| 1777912602 | 27.78° C | 37% | 1012.3 hPa | 0 mm | - | 834 W/m² | - |
| 1777912298 | 27.78° C | 38% | 1012.2 hPa | 0 mm | - | 748 W/m² | - |
| 1777911994 | 27.78° C | 37% | 1012.2 hPa | 0 mm | - | 541 W/m² | - |
| 1777911690 | 27.22° C | 39% | 1012.1 hPa | 0 mm | - | 773 W/m² | - |
| 1777911387 | 27.22° C | 39% | 1012.4 hPa | 0 mm | - | 773 W/m² | - |
| 1777910782 | 26.67° C | 40% | 1012.6 hPa | 0 mm | - | 540 W/m² | - |
| 1777910478 | 26.67° C | 40% | 1012.4 hPa | 0 mm | - | 540 W/m² | - |
| 1777910175 | 26.67° C | 40% | 1012.4 hPa | 0 mm | - | 673 W/m² | - |
| 1777909872 | 26.11° C | 41% | 1012.5 hPa | 0 mm | - | 612 W/m² | - |
| 1777909569 | 26.67° C | 41% | 1012.5 hPa | 0 mm | - | 613 W/m² | - |
| 1777909266 | 26.11° C | 41% | 1012.4 hPa | 0 mm | - | 590 W/m² | - |
| 1777908964 | 26.11° C | 42% | 1012.6 hPa | 0 mm | - | 562 W/m² | - |
| 1777908662 | 26.11° C | 42% | 1013 hPa | 0 mm | - | 539 W/m² | - |
* Rain latest hour (hover to see other rain measurements)
** Current wind speed in m/s (hover to see current wind gust speed)